首页
METAR-TAF:

METAR-TAF

机场 :

Fort Bragg, 北卡罗来纳州, 美国

纬度: 35-08N, 经度: 078-56W, 海拔: 74米

当前天气观测

该预报发布于20分钟前的16:56 UTC
风速8节,风向西转西南
温度 12°C
湿度 47%
气压 1022 hPa
能見度: 16.1公里
天空无云

METAR: KFBG 161656Z AUTO 24008KT 10SM CLR 12/01 A3019 RMK AO2 SLP227 T01210011

时间: 12:16 (17:16 UTC)

预报

该预报发布于6小时和31分钟前的10:45 UTC
预报有效从16日的 10点(UTC)到 17日的 16点(UTC)
风速6节,风向西
能见度10公里或以上
散云层高于2500英尺
短暂存在
从 16日的 11点(UTC)到 16日的 13点(UTC)
能見度: 3200
散云层高于200英尺
轻雾
成为
从 16日的 14点(UTC)到 16日的 15点(UTC)
风速9节,风向西
能见度10公里或以上
天空无云
成为
从 17日的 06点(UTC)到 17日的 07点(UTC)
风速6节,风向东北
能见度10公里或以上
少量云层高于1500英尺

TAF: KFBG 161045Z 1610/1716 26006KT 9999 SCT025 QNH3016INS TEMPO 1611/1613 3200 BR SCT002 BECMG 1614/1615 26009KT 9999 SKC QNH3015INS BECMG 1706/1707 05006KT 9999 FEW015 QNH3024INS TX13/1620Z TNM03/1611Z

超过4000个机场的气象观测和天气预报(METAR&TAF报告)。

可查询的气象台以黄色和红色小点在地图上表示。

将鼠标移到小点上方,可查看气象台名称。

然后点击查看天气观测和预报。

如需切换地图:点击带黑十字的绿色按钮放大地图;点击带横线的绿色按钮缩小地图;或者点击绿色箭头查看邻近地区的地图。


METAR-TAF: